Time;durP1;ratioP1;P1;durP2;ratioP2;P2;SDS_P1;SDS_P2;PMS_P1;PMS_P2;Temp;Humidity;BMP_temperature;BMP_pressure;BME280_temperature;BME280_humidity;BME280_pressure;Samples;Min_cycle;Max_cycle;Signal;HPM_P1;HPM_P2
2022/12/04 00:04:38;;;;;;;42.37;18.60;;;;;;;-0.24;100.00;102050.59;10578962;28;20043;-71
2022/12/04 00:09:39;;;;;;;45.35;19.63;;;;;;;-0.22;100.00;102055.84;10542401;28;20036;-72
2022/12/04 00:14:39;;;;;;;41.93;20.37;;;;;;;-0.21;100.00;102054.84;10529359;28;20037;-72
2022/12/04 00:19:40;;;;;;;48.53;20.77;;;;;;;-0.28;100.00;102041.06;10547936;28;20028;-72
2022/12/04 00:24:40;;;;;;;44.15;20.40;;;;;;;-0.26;100.00;102043.63;10546768;28;20043;-73
2022/12/04 00:29:41;;;;;;;44.23;20.43;;;;;;;-0.39;100.00;102022.38;10552348;27;20046;-73
2022/12/04 00:34:41;;;;;;;49.23;21.53;;;;;;;-0.35;100.00;102039.13;10589541;27;20024;-72
2022/12/04 00:39:42;;;;;;;44.75;20.10;;;;;;;-0.27;100.00;102060.88;10574240;27;20093;-72
2022/12/04 00:44:43;;;;;;;45.30;20.13;;;;;;;-0.32;100.00;102068.59;10575514;27;20032;-71
2022/12/04 00:49:43;;;;;;;48.63;22.37;;;;;;;-0.33;100.00;102051.53;10587753;27;20043;-71
2022/12/04 00:54:44;;;;;;;48.23;22.97;;;;;;;-0.36;100.00;102051.81;10586130;27;20061;-72
2022/12/04 00:59:45;;;;;;;50.07;22.87;;;;;;;-0.42;100.00;102049.72;10588071;27;20048;-72
2022/12/04 01:04:46;;;;;;;48.83;21.30;;;;;;;-0.46;100.00;102048.31;10588072;27;20032;-71
2022/12/04 01:09:46;;;;;;;52.85;23.13;;;;;;;-0.52;100.00;102040.81;10585179;27;20047;-71
2022/12/04 01:14:47;;;;;;;52.07;23.37;;;;;;;-0.49;100.00;102043.25;10586339;27;20031;-72
2022/12/04 01:19:47;;;;;;;51.23;22.93;;;;;;;-0.46;100.00;102049.16;10586765;27;20035;-72
2022/12/04 01:24:48;;;;;;;50.50;23.47;;;;;;;-0.55;100.00;102041.13;10584569;27;20046;-72
2022/12/04 01:29:48;;;;;;;49.00;22.57;;;;;;;-0.52;100.00;102040.81;10567063;27;20103;-72
2022/12/04 01:34:49;;;;;;;50.17;23.07;;;;;;;-0.53;100.00;102048.09;10568748;27;20035;-72
2022/12/04 01:39:49;;;;;;;57.03;23.97;;;;;;;-0.64;100.00;102042.88;10584847;27;20526;-72
2022/12/04 01:45:38;;;;;;;54.33;23.70;;;;;;;-0.59;100.00;102042.44;10567358;28;20031;-72
2022/12/04 01:50:39;;;;;;;53.87;23.87;;;;;;;-0.80;100.00;102012.97;10576435;28;20039;-74
2022/12/04 01:55:40;;;;;;;48.10;21.93;;;;;;;-0.69;100.00;102024.41;10584216;27;20043;-71
2022/12/04 02:00:40;;;;;;;53.93;23.80;;;;;;;-0.73;100.00;102025.72;10583634;27;20032;-72
2022/12/04 02:05:41;;;;;;;49.73;22.70;;;;;;;-0.71;100.00;102031.81;10582232;27;20035;-72
2022/12/04 02:10:49;;;;;;;55.27;24.03;;;;;;;-0.70;100.00;102036.25;10585499;27;20047;-73
2022/12/04 02:15:56;;;;;;;49.60;23.20;;;;;;;-0.75;100.00;102027.72;10567212;27;20035;-71
2022/12/04 02:21:02;;;;;;;50.90;24.33;;;;;;;-0.74;100.00;102024.03;10566580;27;20407;-72
2022/12/04 02:26:21;;;;;;;;;;;;;;;-0.70;100.00;102040.81;10567003;28;20031;-72
2022/12/04 02:31:35;;;;;;;53.10;23.73;;;;;;;-0.79;100.00;102037.13;10583086;27;19927;-72
2022/12/04 02:36:40;;;;;;;53.73;25.50;;;;;;;-0.71;100.00;102044.50;10549997;27;20044;-72
2022/12/04 02:41:47;;;;;;;51.60;22.52;;;;;;;-0.78;100.00;102028.03;10539601;28;20039;-73
2022/12/04 02:46:50;;;;;;;50.00;22.67;;;;;;;-0.80;100.00;102024.63;10541427;28;20028;-72
2022/12/04 02:51:51;;;;;;;56.70;26.30;;;;;;;-0.85;100.00;102024.22;10523704;28;20036;-71
2022/12/04 02:56:51;;;;;;;59.33;26.70;;;;;;;-0.76;100.00;102036.00;10539856;28;20065;-72
2022/12/04 03:01:53;;;;;;;55.30;25.77;;;;;;;-0.75;100.00;102041.25;10506274;28;20043;-72
2022/12/04 03:06:56;;;;;;;56.30;26.43;;;;;;;-0.74;100.00;102034.84;10579747;27;20036;-73
2022/12/04 03:12:02;;;;;;;57.47;26.30;;;;;;;-0.72;100.00;102038.25;10563596;27;20036;-72
2022/12/04 03:17:05;;;;;;;51.17;24.48;;;;;;;-0.84;100.00;102017.84;10561917;27;20491;-72
2022/12/04 03:22:12;;;;;;;55.67;23.47;;;;;;;-0.70;100.00;102036.25;10580182;28;20053;-72
2022/12/04 03:27:23;;;;;;;48.43;24.90;;;;;;;-0.76;100.00;102039.56;10546217;28;20040;-72
2022/12/04 03:32:37;;;;;;;55.57;25.93;;;;;;;-0.82;100.00;102038.31;10562852;27;20039;-72
2022/12/04 03:38:00;;;;;;;63.67;28.30;;;;;;;-0.79;100.00;102031.72;10578634;28;20028;-72
2022/12/04 03:43:03;;;;;;;57.50;26.07;;;;;;;-0.83;100.00;102024.91;10562462;27;20121;-69
2022/12/04 03:48:23;;;;;;;54.80;25.13;;;;;;;-0.86;100.00;102020.69;10579660;28;20091;-72
2022/12/04 03:53:32;;;;;;;64.77;27.93;;;;;;;-0.97;100.00;102007.38;10563681;28;20051;-72
2022/12/04 03:58:33;;;;;;;64.60;26.63;;;;;;;-0.85;100.00;102035.91;10579720;28;20058;-73
2022/12/04 04:03:35;;;;;;;60.67;25.57;;;;;;;-0.80;100.00;102038.16;10579460;28;20066;-73
2022/12/04 04:08:38;;;;;;;53.07;23.43;;;;;;;-0.87;100.00;102026.22;10519004;28;20044;-73
2022/12/04 04:24:51;;;;;;;59.47;24.93;;;;;;;-0.85;100.00;102016.13;10537272;28;20047;-72
2022/12/04 04:29:51;;;;;;;56.30;25.63;;;;;;;-0.85;100.00;102017.00;10506153;28;20059;-72
2022/12/04 04:35:26;;;;;;;52.87;25.53;;;;;;;-0.71;100.00;102042.66;10578592;28;20038;-72
2022/12/04 04:40:42;;;;;;;54.63;24.33;;;;;;;-0.76;100.00;102026.03;10561347;28;20039;-72
2022/12/04 04:46:13;;;;;;;57.05;26.70;;;;;;;-0.68;100.00;102034.25;10562997;28;20080;-72
2022/12/04 04:51:13;;;;;;;55.40;24.80;;;;;;;-0.69;100.00;102037.94;10576569;28;20040;-72
2022/12/04 04:56:14;;;;;;;61.80;25.77;;;;;;;-0.84;100.00;102021.38;10565519;27;20032;-72
2022/12/04 05:01:23;;;;;;;53.90;25.43;;;;;;;-1.08;100.00;101977.84;10586335;27;20035;-73
2022/12/04 05:06:23;;;;;;;62.03;26.63;;;;;;;-0.76;100.00;102028.75;10543733;28;20044;-72
2022/12/04 05:11:24;;;;;;;58.53;25.57;;;;;;;-0.72;100.00;102040.97;10559530;28;20040;-73
2022/12/04 05:16:24;;;;;;;57.55;25.45;;;;;;;-0.68;100.00;102031.53;10560318;28;20095;-73
2022/12/04 05:21:25;;;;;;;56.67;26.30;;;;;;;-0.66;100.00;102043.06;10546015;28;20032;-72
2022/12/04 05:26:25;;;;;;;58.63;28.67;;;;;;;-0.63;100.00;102058.97;10543288;28;20032;-72
2022/12/04 05:31:26;;;;;;;59.00;28.00;;;;;;;-0.64;100.00;102051.88;10565075;27;20037;-73
2022/12/04 05:36:26;;;;;;;53.67;24.73;;;;;;;-0.71;100.00;102042.66;10568428;27;20051;-73
2022/12/04 05:41:26;;;;;;;61.37;25.97;;;;;;;-0.62;100.00;102039.03;10551220;27;20502;-73
2022/12/04 05:46:27;;;;;;;60.47;27.40;;;;;;;-0.59;100.00;102042.44;10584976;27;20415;-73
2022/12/04 05:51:27;;;;;;;59.20;27.50;;;;;;;-0.63;100.00;102045.44;10585021;27;20039;-71
2022/12/04 05:56:28;;;;;;;55.33;26.90;;;;;;;-0.63;100.00;102036.47;10586376;27;20292;-72
2022/12/04 06:01:28;;;;;;;64.73;28.27;;;;;;;-0.59;100.00;102043.28;10582775;27;20042;-72
2022/12/04 06:06:29;;;;;;;58.17;28.77;;;;;;;-0.54;100.00;102048.25;10583923;27;20036;-72
2022/12/04 06:11:34;;;;;;;58.20;25.10;;;;;;;-0.55;100.00;102051.97;10584479;27;20039;-73
2022/12/04 06:16:37;;;;;;;65.77;29.17;;;;;;;-0.69;100.00;102024.41;10584530;27;20039;-72
2022/12/04 06:21:38;;;;;;;56.33;25.77;;;;;;;-0.53;100.00;102066.19;10582977;27;20031;-72
2022/12/04 06:26:39;;;;;;;56.03;26.03;;;;;;;-0.57;100.00;102045.84;10565586;27;20057;-72
2022/12/04 06:31:39;;;;;;;59.00;28.50;;;;;;;-0.66;100.00;102042.22;10582447;27;20052;-72
2022/12/04 06:36:40;;;;;;;57.93;28.33;;;;;;;-0.55;100.00;102062.78;10566126;28;20090;-72
2022/12/04 06:41:40;;;;;;;58.40;25.87;;;;;;;-0.53;100.00;102056.22;10581151;27;20035;-73
2022/12/04 06:46:41;;;;;;;57.73;26.90;;;;;;;-0.61;100.00;102048.00;10564574;27;20036;-72
2022/12/04 06:51:42;;;;;;;59.93;25.83;;;;;;;-0.68;100.00;102039.66;10582362;28;20039;-73
2022/12/04 06:56:42;;;;;;;55.07;26.47;;;;;;;-0.51;100.00;102061.47;10548456;27;20031;-69
2022/12/04 07:01:42;;;;;;;56.67;25.50;;;;;;;-0.87;100.00;101999.19;10584313;28;20055;-72
2022/12/04 07:06:43;;;;;;;55.80;25.33;;;;;;;-0.57;100.00;102038.59;10581215;27;20051;-72
2022/12/04 07:11:44;;;;;;;56.57;24.47;;;;;;;-0.57;100.00;102041.28;10563817;27;20031;-73
2022/12/04 07:16:44;;;;;;;60.70;27.37;;;;;;;-0.63;100.00;102031.91;10579325;27;20039;-72
2022/12/04 07:21:45;;;;;;;53.45;25.15;;;;;;;-0.59;100.00;102034.34;10564085;27;20073;-72
2022/12/04 07:26:45;;;;;;;57.10;24.87;;;;;;;-0.46;100.00;102059.16;10580376;27;20039;-73
2022/12/04 07:31:46;;;;;;;57.13;26.27;;;;;;;-0.37;100.00;102069.06;10564463;27;20040;-73
2022/12/04 07:36:46;;;;;;;55.05;27.02;;;;;;;-0.36;100.00;102068.06;10547307;27;20489;-72
2022/12/04 07:41:47;;;;;;;57.70;24.87;;;;;;;-0.31;100.00;102056.75;10579364;28;20032;-71
2022/12/04 07:46:47;;;;;;;63.67;29.05;;;;;;;-0.35;100.00;102060.78;10579827;28;20036;-72
2022/12/04 07:51:48;;;;;;;50.87;24.20;;;;;;;-0.26;100.00;102059.88;10580281;28;20082;-72
2022/12/04 07:56:48;;;;;;;58.50;29.37;;;;;;;-0.34;100.00;102047.09;10579766;28;20040;-72
2022/12/04 08:01:49;;;;;;;51.70;25.17;;;;;;;-0.22;100.00;102074.81;10580404;28;20032;-73
2022/12/04 08:06:49;;;;;;;51.53;25.13;;;;;;;-0.94;100.00;101965.66;10545406;27;20040;-73
2022/12/04 08:11:50;;;;;;;57.17;25.17;;;;;;;-0.18;100.00;102059.13;10561171;28;20028;-72
2022/12/04 08:16:50;;;;;;;51.30;24.63;;;;;;;-0.11;100.00;102068.31;10580754;28;20058;-73
2022/12/04 08:21:53;;;;;;;54.33;23.83;;;;;;;-0.09;100.00;102063.59;10545569;28;20043;-71
2022/12/04 08:26:53;;;;;;;50.90;26.07;;;;;;;-0.08;100.00;102068.00;10579167;28;20074;-72
2022/12/04 08:31:54;;;;;;;53.40;25.53;;;;;;;-0.07;100.00;102067.00;10585031;27;20052;-69
2022/12/04 08:36:54;;;;;;;51.63;25.57;;;;;;;0.08;100.00;102081.66;10582636;27;20091;-73
2022/12/04 08:41:55;;;;;;;59.00;28.53;;;;;;;0.12;100.00;102079.50;10563898;27;20035;-73
2022/12/04 08:46:55;;;;;;;56.13;23.87;;;;;;;0.11;100.00;102086.78;10586464;27;20500;-72
2022/12/04 08:51:55;;;;;;;45.77;25.57;;;;;;;0.18;100.00;102085.13;10589242;27;20044;-73
2022/12/04 08:56:56;;;;;;;50.33;24.73;;;;;;;0.27;100.00;102083.38;10587309;27;20039;-72
2022/12/04 09:01:56;;;;;;;48.10;22.23;;;;;;;0.27;100.00;102071.66;10586575;28;20028;-72
2022/12/04 09:06:57;;;;;;;44.88;22.45;;;;;;;0.41;100.00;102090.06;10586456;27;20052;-70
2022/12/04 09:11:57;;;;;;;45.40;23.47;;;;;;;0.48;100.00;102077.59;10569426;27;22349;-73
2022/12/04 09:16:58;;;;;;;44.87;21.73;;;;;;;0.47;100.00;102070.47;10587262;27;20054;-73
2022/12/04 09:21:58;;;;;;;38.50;20.70;;;;;;;0.60;100.00;102079.03;10569417;27;20061;-72
2022/12/04 09:26:59;;;;;;;41.47;19.08;;;;;;;0.63;100.00;102085.16;10587444;27;20035;-72
2022/12/04 09:32:00;;;;;;;37.57;19.33;;;;;;;0.74;100.00;102076.75;10565190;27;20040;-72
2022/12/04 09:37:00;;;;;;;35.80;18.03;;;;;;;0.74;100.00;102058.63;10544657;28;20032;-73
2022/12/04 09:42:06;;;;;;;38.70;19.55;;;;;;;0.96;100.00;102081.63;10566242;27;20031;-72
2022/12/04 09:47:26;;;;;;;;;;;;;;;1.03;100.00;102089.97;10585790;27;20044;-73
2022/12/04 09:52:58;;;;;;;37.77;18.57;;;;;;;1.04;100.00;102088.13;10587085;27;19920;-72
2022/12/04 09:58:00;;;;;;;37.35;17.95;;;;;;;1.07;100.00;102083.19;10584918;27;20681;-72
2022/12/04 10:03:04;;;;;;;36.42;17.98;;;;;;;1.00;100.00;102074.03;10584596;27;20085;-72
2022/12/04 10:08:11;;;;;;;35.95;18.05;;;;;;;1.03;100.00;102067.41;10540831;28;20043;-72
2022/12/04 10:13:28;;;;;;;32.00;17.40;;;;;;;1.17;100.00;102072.22;10550330;27;20082;-72
2022/12/04 10:18:47;;;;;;;34.33;17.13;;;;;;;1.24;100.00;102078.72;10547283;27;20035;-73
2022/12/04 10:24:07;;;;;;;31.93;17.17;;;;;;;1.29;100.00;102067.38;10563860;27;20125;-72
2022/12/04 10:29:12;;;;;;;30.50;15.82;;;;;;;1.34;100.00;102071.28;10563487;27;20039;-73
2022/12/04 10:34:18;;;;;;;27.87;15.53;;;;;;;1.44;100.00;102059.44;10560028;28;20040;-72
2022/12/04 10:39:29;;;;;;;30.45;15.07;;;;;;;1.46;100.00;102057.41;10544241;27;20081;-73
2022/12/04 10:44:30;;;;;;;27.90;13.87;;;;;;;1.52;100.00;102063.03;10543134;27;20484;-72
2022/12/04 10:49:33;;;;;;;28.97;13.73;;;;;;;1.48;100.00;102045.38;10560378;27;20048;-72
2022/12/04 10:54:39;;;;;;;28.85;15.30;;;;;;;1.55;100.00;102050.97;10544384;27;20051;-73
2022/12/04 10:59:53;;;;;;;25.75;14.30;;;;;;;1.21;100.00;102005.78;10559941;28;20028;-72
2022/12/04 11:05:04;;;;;;;30.33;14.93;;;;;;;1.62;100.00;102062.88;10561680;28;20552;-72
2022/12/04 11:10:16;;;;;;;34.28;15.32;;;;;;;1.53;100.00;102053.88;10545051;28;20500;-72
2022/12/04 11:15:16;;;;;;;28.48;14.30;;;;;;;1.53;100.00;102047.59;10590066;27;20046;-72
2022/12/04 11:20:22;;;;;;;28.40;15.40;;;;;;;1.48;100.00;102034.53;10622980;27;20070;-72
2022/12/04 11:25:24;;;;;;;27.27;14.90;;;;;;;1.45;100.00;102023.13;10586905;27;20038;-73
2022/12/04 11:30:36;;;;;;;30.17;13.57;;;;;;;1.40;100.00;102019.06;10588951;27;20046;-72
2022/12/04 11:35:36;;;;;;;29.90;15.70;;;;;;;1.41;100.00;102012.63;10556474;28;20044;-73
2022/12/04 11:40:37;;;;;;;30.85;14.55;;;;;;;1.53;100.00;102020.44;10545400;28;20415;-72
2022/12/04 11:45:37;;;;;;;30.07;14.67;;;;;;;1.61;100.00;102018.63;10565160;27;20040;-72
2022/12/04 11:50:52;;;;;;;26.77;14.03;;;;;;;1.61;100.00;102001.47;10515642;28;20058;-73
2022/12/04 11:56:07;;;;;;;29.98;13.73;;;;;;;1.69;100.00;102017.75;10534062;28;20036;-73
2022/12/04 12:01:19;;;;;;;30.20;15.00;;;;;;;1.70;100.00;102010.50;10560469;28;20051;-72
2022/12/04 12:06:34;;;;;;;31.00;17.17;;;;;;;1.59;100.00;101971.78;10566491;27;20130;-72
2022/12/04 12:11:46;;;;;;;33.03;17.27;;;;;;;1.68;100.00;101975.34;10551182;27;20099;-72
2022/12/04 12:17:01;;;;;;;32.80;16.73;;;;;;;1.59;100.00;101966.38;10565485;27;20035;-73
2022/12/04 12:22:29;;;;;;;28.88;15.32;;;;;;;1.73;100.00;101996.56;10566647;27;20033;-73
2022/12/04 12:27:51;;;;;;;33.67;16.83;;;;;;;1.76;100.00;101997.09;10568877;27;20115;-73
2022/12/04 12:33:09;;;;;;;32.58;16.27;;;;;;;1.74;100.00;102009.97;10568741;27;20403;-73
2022/12/04 12:38:16;;;;;;;33.92;16.80;;;;;;;1.75;100.00;102011.66;10567060;27;20036;-72
2022/12/04 12:43:20;;;;;;;29.05;15.48;;;;;;;0.75;100.00;101861.63;10550174;27;20047;-72
2022/12/04 12:48:25;;;;;;;30.80;15.57;;;;;;;1.77;100.00;102011.50;10564236;27;20081;-72
2022/12/04 12:53:27;;;;;;;33.83;17.17;;;;;;;1.45;100.00;101949.88;10567042;27;20042;-74
2022/12/04 12:58:43;;;;;;;33.40;17.93;;;;;;;1.85;100.00;101988.94;10525106;27;20051;-72
2022/12/04 13:04:05;;;;;;;40.47;17.52;;;;;;;1.85;100.00;101987.06;10549035;27;20052;-73
2022/12/04 13:09:25;;;;;;;35.38;16.85;;;;;;;1.90;100.00;101972.97;10538893;27;20051;-73
2022/12/04 13:14:25;;;;;;;29.58;14.70;;;;;;;1.83;100.00;101974.69;10532655;27;20403;-72
2022/12/04 13:19:25;;;;;;;33.47;19.17;;;;;;;1.91;100.00;101985.53;10537629;27;20493;-73
2022/12/04 13:24:41;;;;;;;34.60;17.48;;;;;;;1.88;100.00;101973.16;10538266;27;20067;-73
2022/12/04 13:29:48;;;;;;;26.13;13.18;;;;;;;1.84;100.00;101962.78;10536491;27;20036;-73
2022/12/04 13:35:02;;;;;;;38.20;18.10;;;;;;;1.72;100.00;101955.00;10538758;27;20048;-73
2022/12/04 13:40:25;;;;;;;40.27;19.03;;;;;;;1.59;100.00;101968.19;10519389;27;20036;-73
2022/12/04 13:45:27;;;;;;;43.25;20.27;;;;;;;1.57;100.00;101975.66;10530351;27;20044;-73
2022/12/04 13:50:29;;;;;;;37.75;18.85;;;;;;;1.61;100.00;101986.03;10515138;28;20040;-73
2022/12/04 13:55:34;;;;;;;47.38;22.25;;;;;;;1.48;100.00;101990.25;10531409;27;20032;-73
2022/12/04 14:00:35;;;;;;;46.83;22.40;;;;;;;1.44;100.00;101980.75;10511968;27;20044;-73
2022/12/04 14:05:40;;;;;;;48.87;22.77;;;;;;;1.35;100.00;101969.88;10516782;27;20052;-73
2022/12/04 14:10:40;;;;;;;39.22;19.25;;;;;;;1.40;100.00;101967.50;10530580;27;20040;-74
2022/12/04 14:15:41;;;;;;;41.55;20.33;;;;;;;1.46;100.00;101955.13;10539842;27;20043;-73
2022/12/04 14:20:43;;;;;;;36.63;17.63;;;;;;;1.50;100.00;101964.63;10548500;27;20044;-73
2022/12/04 14:25:43;;;;;;;39.17;18.65;;;;;;;1.53;100.00;101963.44;10564073;27;20040;-73
2022/12/04 14:30:44;;;;;;;37.22;18.30;;;;;;;1.45;100.00;101942.59;10544963;27;20049;-73
2022/12/04 14:36:06;;;;;;;36.33;17.63;;;;;;;1.58;100.00;101966.53;10530335;28;20044;-72
2022/12/04 14:41:06;;;;;;;36.75;19.75;;;;;;;1.58;100.00;101956.50;10550543;27;20044;-73
2022/12/04 14:46:17;;;;;;;31.47;17.23;;;;;;;1.54;100.00;101946.16;10529836;27;20097;-73
2022/12/04 14:51:21;;;;;;;38.28;19.02;;;;;;;1.64;100.00;101968.56;10538752;27;20454;-73
2022/12/04 14:56:23;;;;;;;36.17;17.63;;;;;;;1.22;100.00;101888.16;10565305;27;20047;-73
2022/12/04 15:01:31;;;;;;;36.20;18.15;;;;;;;1.64;100.00;101965.84;10565306;27;20039;-74
2022/12/04 15:06:32;;;;;;;41.58;17.75;;;;;;;1.66;100.00;101971.13;10546151;27;20035;-73
2022/12/04 15:17:01;;;;;;;37.67;18.83;;;;;;;1.64;100.00;101957.72;10542036;27;20078;-73
2022/12/04 15:22:03;;;;;;;42.73;20.20;;;;;;;1.71;100.00;101979.59;10557889;27;20039;-72
2022/12/04 15:27:04;;;;;;;42.40;20.45;;;;;;;1.63;100.00;101977.72;10541830;28;20046;-73
2022/12/04 15:32:05;;;;;;;40.00;19.95;;;;;;;1.31;100.00;101916.97;10558354;28;20063;-73
2022/12/04 15:37:11;;;;;;;46.05;21.17;;;;;;;1.68;100.00;101980.78;10526685;28;20043;-73
2022/12/04 15:42:15;;;;;;;47.97;22.52;;;;;;;1.75;100.00;101984.50;10547749;28;20047;-74
2022/12/04 15:47:18;;;;;;;47.08;21.63;;;;;;;1.68;100.00;101964.50;10609484;27;20035;-74
2022/12/04 15:52:21;;;;;;;45.83;23.35;;;;;;;1.69;100.00;101971.59;10586832;27;20036;-74
2022/12/04 15:57:21;;;;;;;44.27;21.90;;;;;;;1.83;100.00;101988.25;10620154;27;20035;-74
2022/12/04 16:02:29;;;;;;;45.10;21.10;;;;;;;1.81;100.00;101991.13;10617017;27;20503;-74
2022/12/04 16:07:30;;;;;;;49.83;23.57;;;;;;;1.75;100.00;101983.66;10580737;27;20039;-74
2022/12/04 16:12:31;;;;;;;42.35;20.60;;;;;;;1.83;100.00;101991.81;10547654;27;20036;-73
2022/12/04 16:17:31;;;;;;;40.05;20.52;;;;;;;1.83;100.00;101994.53;10525139;27;20044;-73
2022/12/04 16:22:32;;;;;;;44.40;21.75;;;;;;;1.93;100.00;102007.94;10521685;27;20399;-73
2022/12/04 16:27:32;;;;;;;43.30;21.83;;;;;;;1.89;100.00;102003.88;10524282;27;20059;-73
2022/12/04 16:32:33;;;;;;;47.83;21.73;;;;;;;1.95;100.00;102016.78;10524759;27;20071;-74
2022/12/04 16:37:33;;;;;;;42.63;20.25;;;;;;;1.38;100.00;101909.00;10524094;28;20588;-74
2022/12/04 16:42:34;;;;;;;42.90;21.35;;;;;;;2.00;100.00;102017.09;10527330;27;20040;-73
2022/12/04 16:47:34;;;;;;;44.97;22.53;;;;;;;1.87;100.00;101995.06;10508264;28;20032;-71
2022/12/04 16:52:35;;;;;;;44.78;22.50;;;;;;;2.01;100.00;101997.09;10528540;28;20040;-73
2022/12/04 16:57:35;;;;;;;41.03;20.17;;;;;;;2.06;100.00;102007.44;10516583;28;20040;-73
2022/12/04 17:02:36;;;;;;;43.08;21.23;;;;;;;2.04;100.00;101994.03;10531987;27;20024;-73
2022/12/04 17:07:36;;;;;;;44.00;22.38;;;;;;;2.04;100.00;101991.31;10514715;27;20044;-73
2022/12/04 17:12:37;;;;;;;42.22;20.65;;;;;;;2.07;100.00;101992.81;10530329;27;20059;-73
2022/12/04 17:17:37;;;;;;;39.33;21.17;;;;;;;2.13;100.00;102006.59;10532948;27;20028;-73
2022/12/04 17:22:38;;;;;;;43.92;22.80;;;;;;;2.17;100.00;101999.81;10495702;28;20043;-74
2022/12/04 17:27:39;;;;;;;39.17;21.47;;;;;;;2.20;100.00;101985.00;10523232;28;20089;-73
2022/12/04 17:32:39;;;;;;;41.05;21.13;;;;;;;2.25;100.00;101987.22;10525721;27;20135;-73
2022/12/04 17:37:40;;;;;;;42.15;20.92;;;;;;;2.27;100.00;101996.03;10527535;28;20032;-73
2022/12/04 17:42:41;;;;;;;44.00;22.87;;;;;;;2.32;100.00;102004.53;10524641;27;20043;-73
2022/12/04 17:47:41;;;;;;;43.55;22.40;;;;;;;2.28;100.00;101993.16;10561792;28;20031;-72
2022/12/04 17:52:42;;;;;;;44.40;21.70;;;;;;;2.36;100.00;102006.72;10599420;27;20099;-74
2022/12/04 17:57:42;;;;;;;44.45;22.25;;;;;;;2.37;100.00;101999.41;10595341;27;20494;-73
2022/12/04 18:02:43;;;;;;;47.20;23.20;;;;;;;2.41;100.00;101996.19;10589109;27;20032;-73
2022/12/04 18:07:43;;;;;;;43.50;23.05;;;;;;;2.33;100.00;101987.19;10584063;27;20546;-73
2022/12/04 18:12:43;;;;;;;42.92;24.27;;;;;;;2.42;100.00;102002.47;10568974;28;20039;-73
2022/12/04 18:17:44;;;;;;;41.95;21.60;;;;;;;2.46;100.00;102003.84;10580811;27;20036;-73
2022/12/04 18:22:44;;;;;;;47.83;22.67;;;;;;;2.24;100.00;101994.53;10583353;27;20040;-72
2022/12/04 18:27:45;;;;;;;41.65;22.50;;;;;;;2.13;100.00;101952.25;10585211;27;20073;-73
2022/12/04 18:32:46;;;;;;;45.05;23.58;;;;;;;2.51;100.00;102012.31;10584502;27;20035;-73
2022/12/04 18:37:47;;;;;;;45.72;21.77;;;;;;;2.62;100.00;102025.56;10579668;28;20039;-73
2022/12/04 18:42:47;;;;;;;49.00;22.80;;;;;;;2.63;100.00;102029.94;10563055;27;20038;-73
2022/12/04 18:47:48;;;;;;;44.10;21.50;;;;;;;2.61;100.00;102029.28;10565490;28;20043;-73
2022/12/04 18:52:48;;;;;;;42.83;22.73;;;;;;;2.65;100.00;102031.63;10542275;27;20047;-73
2022/12/04 18:57:49;;;;;;;46.05;22.63;;;;;;;2.68;100.00;102036.75;10541318;27;20044;-73
2022/12/04 19:02:49;;;;;;;42.60;22.42;;;;;;;2.42;100.00;101997.06;10558870;27;20173;-73
2022/12/04 19:07:51;;;;;;;45.72;22.05;;;;;;;2.71;100.00;102036.38;10579139;27;20085;-73
2022/12/04 19:12:51;;;;;;;47.13;23.85;;;;;;;2.69;100.00;102028.41;10517145;27;20056;-72
2022/12/04 19:17:52;;;;;;;41.72;21.70;;;;;;;2.67;100.00;102026.88;10526451;27;20048;-72
2022/12/04 19:22:52;;;;;;;49.45;24.38;;;;;;;2.72;100.00;102038.09;10529751;27;20123;-73
2022/12/04 19:27:53;;;;;;;49.28;23.52;;;;;;;2.77;100.00;102041.13;10527413;27;20044;-71
2022/12/04 19:32:54;;;;;;;43.17;20.45;;;;;;;2.75;100.00;102027.72;10509704;27;20065;-72
2022/12/04 19:37:54;;;;;;;42.35;20.58;;;;;;;2.84;100.00;102042.13;10524077;28;20048;-72
2022/12/04 19:42:55;;;;;;;41.90;20.27;;;;;;;2.82;100.00;102038.75;10524287;27;20411;-72
2022/12/04 19:47:55;;;;;;;43.95;22.05;;;;;;;2.84;100.00;102042.13;10526671;27;20148;-72
2022/12/04 19:52:56;;;;;;;41.55;21.73;;;;;;;2.87;100.00;102049.94;10545255;27;20054;-72
2022/12/04 19:57:56;;;;;;;44.42;21.92;;;;;;;2.87;100.00;102041.78;10531932;27;20032;-73
2022/12/04 20:02:57;;;;;;;41.08;21.27;;;;;;;2.92;100.00;102044.00;10521957;28;20036;-73
2022/12/04 20:07:57;;;;;;;42.45;22.63;;;;;;;2.92;100.00;102050.28;10505019;28;20935;-73
2022/12/04 20:12:57;;;;;;;48.00;22.95;;;;;;;2.92;100.00;102044.84;10520644;28;20048;-72
2022/12/04 20:17:58;;;;;;;42.83;21.73;;;;;;;2.95;100.00;102049.06;10507296;28;20492;-73
2022/12/04 20:22:59;;;;;;;45.65;23.50;;;;;;;2.93;100.00;102051.94;10562217;28;20039;-72
2022/12/04 20:27:59;;;;;;;46.42;23.38;;;;;;;2.97;100.00;102052.47;10548394;27;20039;-70
2022/12/04 20:33:00;;;;;;;47.08;22.42;;;;;;;2.95;100.00;102047.19;10537925;27;20043;-72
2022/12/04 20:38:01;;;;;;;46.28;23.35;;;;;;;2.97;100.00;102038.84;10555397;27;20032;-72
2022/12/04 20:43:01;;;;;;;43.30;22.60;;;;;;;2.98;100.00;102035.97;10551737;27;20074;-72
2022/12/04 20:48:02;;;;;;;45.80;22.77;;;;;;;3.01;100.00;102032.88;10566685;27;20040;-72
2022/12/04 20:53:03;;;;;;;44.15;21.30;;;;;;;2.96;100.00;102018.97;10548570;27;20126;-72
2022/12/04 20:58:03;;;;;;;43.47;21.50;;;;;;;3.01;100.00;102016.56;10527831;27;20040;-73
2022/12/04 21:03:03;;;;;;;40.97;21.23;;;;;;;3.04;100.00;102020.81;10532153;27;20044;-72
2022/12/04 21:08:04;;;;;;;46.58;21.17;;;;;;;3.06;100.00;102007.03;10532366;27;20043;-73
2022/12/04 21:18:23;;;;;;;41.72;22.67;;;;;;;3.10;100.00;102002.91;10530322;28;20115;-72
2022/12/04 21:23:24;;;;;;;41.00;21.15;;;;;;;2.71;100.00;101930.31;10558626;27;20266;-71
2022/12/04 21:28:25;;;;;;;41.55;21.00;;;;;;;3.15;100.00;102011.41;10618345;27;20502;-72
2022/12/04 21:33:28;;;;;;;44.55;21.67;;;;;;;3.16;100.00;102007.66;10629105;27;20122;-72
2022/12/04 21:38:31;;;;;;;47.45;21.73;;;;;;;3.16;100.00;101999.50;10625141;27;20046;-72
2022/12/04 21:43:32;;;;;;;45.15;21.65;;;;;;;3.15;100.00;101995.09;10510656;27;20495;-72
2022/12/04 21:48:33;;;;;;;40.90;21.58;;;;;;;3.11;100.00;101993.75;10509116;27;20040;-72
2022/12/04 21:53:34;;;;;;;43.63;21.98;;;;;;;3.16;100.00;101991.31;10552481;27;20047;-73
2022/12/04 21:58:34;;;;;;;43.63;21.73;;;;;;;3.19;100.00;101993.72;10631428;27;20986;-72
2022/12/04 22:03:35;;;;;;;38.60;19.52;;;;;;;3.11;100.00;101982.88;10616406;27;20396;-73
2022/12/04 22:08:36;;;;;;;34.33;18.67;;;;;;;3.18;100.00;101989.28;10626698;27;20034;-72
2022/12/04 22:13:37;;;;;;;37.35;19.98;;;;;;;2.93;100.00;101943.16;10625204;27;20098;-72
2022/12/04 22:18:37;;;;;;;36.00;18.83;;;;;;;3.22;100.00;101979.72;10623331;27;20046;-72
2022/12/04 22:23:38;;;;;;;31.95;17.20;;;;;;;3.22;100.00;101980.59;10599580;27;20355;-73
2022/12/04 22:28:38;;;;;;;31.45;16.33;;;;;;;3.25;100.00;101963.06;10604149;27;20494;-73
2022/12/04 22:33:40;;;;;;;30.80;15.05;;;;;;;3.22;100.00;101957.97;10622796;27;20039;-72
2022/12/04 22:38:41;;;;;;;35.00;16.38;;;;;;;3.28;100.00;101975.44;10595307;27;20028;-72
2022/12/04 22:43:41;;;;;;;31.98;17.05;;;;;;;3.34;100.00;101964.69;10580024;27;20024;-72
2022/12/04 22:48:42;;;;;;;34.15;18.58;;;;;;;3.36;100.00;101970.81;10578741;27;20023;-72
2022/12/04 22:53:50;;;;;;;32.63;17.02;;;;;;;3.30;100.00;101965.25;10589260;27;20040;-72
2022/12/04 22:58:51;;;;;;;33.20;16.77;;;;;;;3.32;100.00;101974.91;10565157;27;20042;-72
2022/12/04 23:03:52;;;;;;;33.50;16.95;;;;;;;3.30;100.00;101965.25;10581845;27;20461;-72